createdAt,value
2023-04-13T00:00:46.956Z,2.80
2023-04-13T00:03:14.115Z,1.40
2023-04-13T00:05:40.978Z,1.42
2023-04-13T00:08:08.146Z,1.33
2023-04-13T00:10:35.706Z,1.13
2023-04-13T00:13:06.548Z,1.98
2023-04-13T00:15:35.194Z,2.15
2023-04-13T00:18:01.740Z,1.10
2023-04-13T00:20:28.734Z,1.02
2023-04-13T00:22:55.417Z,1.33
2023-04-13T00:25:22.087Z,2.92
2023-04-13T00:27:50.722Z,1.05
2023-04-13T00:30:17.849Z,1.20
2023-04-13T00:32:45.633Z,1.98
2023-04-13T00:35:16.351Z,2.78
2023-04-13T00:37:42.925Z,0.90
2023-04-13T00:40:10.110Z,2.10
2023-04-13T00:42:36.650Z,0.93
2023-04-13T00:45:03.498Z,1.73
2023-04-13T00:47:32.532Z,0.75
2023-04-13T00:50:01.850Z,1.52
2023-04-13T00:52:29.069Z,2.00
2023-04-13T00:54:57.654Z,1.85
2023-04-13T00:57:25.180Z,1.30
2023-04-13T00:59:52.454Z,0.52
2023-04-13T01:02:21.969Z,1.67
2023-04-13T01:04:49.211Z,1.75
2023-04-13T01:07:25.566Z,1.45
2023-04-13T01:10:11.075Z,2.83
2023-04-13T01:12:46.516Z,1.38
2023-04-13T01:15:14.671Z,0.98
2023-04-13T01:17:45.176Z,2.13
2023-04-13T01:20:14.850Z,1.05
2023-04-13T01:22:53.244Z,1.50
2023-04-13T01:25:25.690Z,1.40
2023-04-13T01:27:57.769Z,1.63
2023-04-13T01:30:25.472Z,2.67
2023-04-13T01:32:52.610Z,9.68
2023-04-13T01:35:22.832Z,0.57
2023-04-13T01:37:49.886Z,3.88
2023-04-13T01:40:16.671Z,1.55
2023-04-13T01:42:43.611Z,1.30
2023-04-13T01:45:17.196Z,2.10
2023-04-13T01:48:21.864Z,3.05
2023-04-13T01:51:19.002Z,2.35
2023-04-13T01:54:15.401Z,2.08
2023-04-13T01:56:42.789Z,1.88
2023-04-13T01:59:10.069Z,2.13
2023-04-13T02:01:40.359Z,3.72
2023-04-13T02:04:07.456Z,2.47
2023-04-13T02:06:34.098Z,7.47
2023-04-13T02:09:00.594Z,2.13
2023-04-13T02:11:27.926Z,1.42
2023-04-13T02:13:54.459Z,5.70
2023-04-13T02:16:20.965Z,1.67
2023-04-13T02:18:47.470Z,3.10
2023-04-13T02:21:13.972Z,2.90
2023-04-13T02:23:41.056Z,1.83
2023-04-13T02:26:08.746Z,2.65
2023-04-13T02:28:35.272Z,2.45
2023-04-13T02:31:02.254Z,2.45
2023-04-13T02:33:29.058Z,1.50
2023-04-13T02:35:55.590Z,1.33
2023-04-13T02:38:22.120Z,1.33
2023-04-13T02:40:48.647Z,1.35
2023-04-13T02:43:15.208Z,0.73
2023-04-13T02:45:41.785Z,1.13
2023-04-13T02:48:08.372Z,1.08
2023-04-13T02:50:35.259Z,1.63
2023-04-13T02:53:01.850Z,1.48
2023-04-13T02:55:28.389Z,1.73
2023-04-13T02:57:54.931Z,1.38
2023-04-13T03:00:21.613Z,1.20
2023-04-13T03:02:48.228Z,4.90
2023-04-13T03:05:14.815Z,1.95
2023-04-13T03:07:41.347Z,1.08
2023-04-13T03:10:08.538Z,1.17
2023-04-13T03:12:35.238Z,1.35
2023-04-13T03:15:01.788Z,1.95
2023-04-13T03:17:30.705Z,3.97
2023-04-13T03:19:57.964Z,1.42
2023-04-13T03:22:24.774Z,1.30
2023-04-13T03:24:51.900Z,4.18
2023-04-13T03:27:18.584Z,2.28
2023-04-13T03:29:45.066Z,2.08
2023-04-13T03:32:11.603Z,1.88
2023-04-13T03:34:38.103Z,2.90
2023-04-13T03:37:04.652Z,2.65
2023-04-13T03:39:31.163Z,1.27
2023-04-13T03:41:57.690Z,3.22
2023-04-13T03:44:24.185Z,0.93
2023-04-13T03:46:50.757Z,1.08
2023-04-13T03:49:17.258Z,1.33
2023-04-13T03:51:43.815Z,2.08
2023-04-13T03:54:10.292Z,1.02
2023-04-13T03:56:36.833Z,0.73
2023-04-13T03:59:03.330Z,1.50
2023-04-13T04:01:30.036Z,2.03
2023-04-13T04:03:56.727Z,2.70
2023-04-13T04:06:24.343Z,2.33
2023-04-13T04:08:51.048Z,1.60
2023-04-13T04:11:17.719Z,2.60
2023-04-13T04:13:44.270Z,2.28
2023-04-13T04:16:11.114Z,2.05
2023-04-13T04:18:38.438Z,1.65
2023-04-13T04:21:05.376Z,0.60
2023-04-13T04:23:32.164Z,1.45
2023-04-13T04:25:58.685Z,0.43
2023-04-13T04:28:25.723Z,1.17
2023-04-13T04:30:52.339Z,2.63
2023-04-13T04:33:19.030Z,1.40
2023-04-13T04:35:45.494Z,1.17
2023-04-13T04:38:11.961Z,1.65
2023-04-13T04:40:38.471Z,2.22
2023-04-13T04:43:05.011Z,2.25
2023-04-13T04:45:31.494Z,2.25
2023-04-13T04:47:58.174Z,5.15
2023-04-13T04:50:24.771Z,2.10
2023-04-13T04:52:51.727Z,2.33
2023-04-13T04:55:18.275Z,3.38
2023-04-13T04:57:44.758Z,1.48
2023-04-13T05:00:11.770Z,4.43
2023-04-13T05:02:38.361Z,1.67
2023-04-13T05:05:05.278Z,3.35
2023-04-13T05:07:31.824Z,3.80
2023-04-13T05:09:58.357Z,1.38
2023-04-13T05:12:24.898Z,1.08
2023-04-13T05:14:51.469Z,1.45
2023-04-13T05:17:18.028Z,1.95
2023-04-13T05:19:45.323Z,1.50
2023-04-13T05:22:12.835Z,1.52
2023-04-13T05:24:39.526Z,1.63
2023-04-13T05:27:06.116Z,0.95
2023-04-13T05:29:32.605Z,1.48
2023-04-13T05:31:59.769Z,1.67
2023-04-13T05:34:26.349Z,1.13
2023-04-13T05:36:52.873Z,2.45
2023-04-13T05:39:19.988Z,3.47
2023-04-13T05:41:46.529Z,4.05
2023-04-13T05:44:13.049Z,1.65
2023-04-13T05:46:39.575Z,1.48
2023-04-13T05:49:06.209Z,4.20
2023-04-13T05:51:32.748Z,2.85
2023-04-13T05:53:59.448Z,3.63
2023-04-13T05:56:26.061Z,1.23
2023-04-13T05:58:53.014Z,3.10
2023-04-13T06:01:19.560Z,3.13
2023-04-13T06:03:46.875Z,2.08
2023-04-13T06:06:13.614Z,7.38
2023-04-13T06:08:40.376Z,3.15
2023-04-13T06:11:07.205Z,3.33
2023-04-13T06:13:33.725Z,2.80
2023-04-13T06:16:00.254Z,2.10
2023-04-13T06:18:26.910Z,4.03
2023-04-13T06:20:53.484Z,5.93
2023-04-13T06:23:20.061Z,2.28
2023-04-13T06:25:46.560Z,3.72
2023-04-13T06:28:13.191Z,2.17
2023-04-13T06:30:39.724Z,3.05
2023-04-13T06:33:06.452Z,4.85
2023-04-13T06:35:33.108Z,4.15
2023-04-13T06:38:01.161Z,3.05
2023-04-13T06:40:28.430Z,4.55
2023-04-13T06:42:54.969Z,4.07
2023-04-13T06:45:21.835Z,3.50
2023-04-13T06:47:48.443Z,2.25
2023-04-13T06:50:15.701Z,2.97
2023-04-13T06:52:43.646Z,4.20
2023-04-13T06:55:10.189Z,3.65
2023-04-13T06:57:36.677Z,4.75
2023-04-13T07:00:03.649Z,2.17
2023-04-13T07:02:30.222Z,2.42
2023-04-13T07:04:56.854Z,1.75
2023-04-13T07:07:23.444Z,6.00
2023-04-13T07:09:49.979Z,3.70
2023-04-13T07:12:16.592Z,3.08
2023-04-13T07:14:43.216Z,3.13
2023-04-13T07:17:11.926Z,4.00
2023-04-13T07:22:10.544Z,5.50
2023-04-13T07:24:37.079Z,10.30
2023-04-13T07:27:03.663Z,6.85
2023-04-13T07:29:30.146Z,9.55
2023-04-13T07:32:01.353Z,3.75
2023-04-13T07:34:28.502Z,5.45
2023-04-13T07:36:55.468Z,3.97
2023-04-13T07:39:21.978Z,3.90
2023-04-13T07:41:48.899Z,6.18
2023-04-13T07:44:15.486Z,7.30
2023-04-13T07:46:42.079Z,2.70
2023-04-13T07:49:08.752Z,5.78
2023-04-13T07:51:35.291Z,6.55
2023-04-13T07:54:02.290Z,8.52
2023-04-13T07:56:29.191Z,7.60
2023-04-13T07:58:55.683Z,10.38
2023-04-13T08:01:22.154Z,5.53
2023-04-13T08:03:48.899Z,4.60
2023-04-13T08:06:15.495Z,4.47
2023-04-13T08:08:42.013Z,4.28
2023-04-13T08:11:08.751Z,9.73
2023-04-13T08:13:35.419Z,7.00
2023-04-13T08:16:01.984Z,5.53
2023-04-13T08:18:28.539Z,6.43
2023-04-13T08:20:55.237Z,7.20
2023-04-13T08:23:22.580Z,5.38
2023-04-13T08:25:49.196Z,6.53
2023-04-13T08:28:15.725Z,7.57
2023-04-13T08:30:42.324Z,10.77
2023-04-13T08:33:09.226Z,6.05
2023-04-13T08:35:36.066Z,5.50
2023-04-13T08:38:02.702Z,7.22
2023-04-13T08:40:30.413Z,5.57
2023-04-13T08:42:57.097Z,16.05
2023-04-13T08:45:23.670Z,6.43
2023-04-13T08:47:50.221Z,8.18
2023-04-13T08:50:17.604Z,5.03
2023-04-13T08:52:44.214Z,6.57
2023-04-13T08:55:10.696Z,8.50
2023-04-13T08:57:38.693Z,7.70
2023-04-13T09:00:06.432Z,8.93
2023-04-13T09:02:39.394Z,5.78
2023-04-13T09:05:11.283Z,5.75
2023-04-13T09:07:38.004Z,7.80
2023-04-13T09:10:04.839Z,10.77
2023-04-13T09:12:31.837Z,10.52
2023-04-13T09:14:58.323Z,8.57
2023-04-13T09:17:26.590Z,7.57
2023-04-13T09:19:54.881Z,9.65
2023-04-13T09:22:21.471Z,10.10
2023-04-13T09:24:48.002Z,6.80
2023-04-13T09:27:22.038Z,10.80
2023-04-13T09:29:52.925Z,12.98
2023-04-13T09:32:24.033Z,6.57
2023-04-13T09:35:05.242Z,4.68
2023-04-13T09:37:32.370Z,8.93
2023-04-13T09:40:11.296Z,12.90
2023-04-13T09:42:39.807Z,8.25
2023-04-13T09:45:06.806Z,7.03
2023-04-13T09:47:37.922Z,9.35
2023-04-13T09:50:05.012Z,7.30
2023-04-13T09:52:31.583Z,14.43
2023-04-13T09:54:58.282Z,10.00
2023-04-13T09:57:32.145Z,6.80
2023-04-13T09:59:59.593Z,6.78
2023-04-13T10:02:27.271Z,7.35
2023-04-13T10:04:54.183Z,12.45
2023-04-13T10:07:20.722Z,20.38
2023-04-13T10:09:49.142Z,6.97
2023-04-13T10:12:17.245Z,6.38
2023-04-13T10:14:47.861Z,5.68
2023-04-13T10:17:17.341Z,4.55
2023-04-13T10:19:47.705Z,7.60
2023-04-13T10:22:15.720Z,6.70
2023-04-13T10:24:43.197Z,6.32
2023-04-13T10:27:20.628Z,4.72
2023-04-13T10:29:47.879Z,7.55
2023-04-13T10:32:21.334Z,6.97
2023-04-13T10:34:47.891Z,8.35
2023-04-13T10:37:21.288Z,5.28
2023-04-13T10:39:47.943Z,11.48
2023-04-13T10:42:17.230Z,9.55
2023-04-13T10:44:50.592Z,7.20
2023-04-13T10:47:19.785Z,10.18
2023-04-13T10:49:48.068Z,8.10
2023-04-13T10:52:15.418Z,8.25
2023-04-13T10:54:43.064Z,6.93
2023-04-13T10:57:10.896Z,9.48
2023-04-13T10:59:57.174Z,10.52
2023-04-13T11:02:30.454Z,7.80
2023-04-13T11:04:57.376Z,7.38
2023-04-13T11:07:24.256Z,10.40
2023-04-13T11:09:50.993Z,8.10
2023-04-13T11:12:18.646Z,10.63
2023-04-13T11:14:49.201Z,6.55
2023-04-13T11:17:18.649Z,5.90
2023-04-13T11:19:53.475Z,5.43
2023-04-13T11:22:22.730Z,7.95
2023-04-13T11:24:50.490Z,7.78
2023-04-13T11:27:17.787Z,8.43
2023-04-13T11:29:44.618Z,7.75
2023-04-13T11:32:18.018Z,4.55
2023-04-13T11:34:44.522Z,8.30
2023-04-13T11:37:11.430Z,4.47
2023-04-13T11:39:38.184Z,9.50
2023-04-13T11:42:05.871Z,4.25
2023-04-13T11:44:34.919Z,4.65
2023-04-13T11:47:05.323Z,3.75
2023-04-13T11:49:32.316Z,6.28
2023-04-13T11:52:00.544Z,4.85
2023-04-13T11:54:28.452Z,5.50
2023-04-13T11:56:55.092Z,9.90
2023-04-13T11:59:25.178Z,8.02
2023-04-13T12:02:01.520Z,6.32
2023-04-13T12:04:39.617Z,2.92
2023-04-13T12:07:13.883Z,8.32
2023-04-13T12:15:12.680Z,5.40
2023-04-13T12:17:48.749Z,9.45
2023-04-13T12:20:16.642Z,5.95
2023-04-13T12:25:21.205Z,6.07
2023-04-13T12:27:52.390Z,5.72
2023-04-13T12:30:20.881Z,6.80
2023-04-13T12:32:51.926Z,5.97
2023-04-13T12:35:18.644Z,6.70
2023-04-13T12:37:46.910Z,5.95
2023-04-13T12:40:15.210Z,3.95
2023-04-13T12:42:48.650Z,6.15
2023-04-13T12:45:15.938Z,7.20
2023-04-13T12:47:42.966Z,6.28
2023-04-13T12:50:11.194Z,5.72
2023-04-13T12:52:39.190Z,4.00
2023-04-13T12:55:06.303Z,4.78
2023-04-13T12:57:32.852Z,5.07
2023-04-13T12:59:59.372Z,5.60
2023-04-13T13:02:28.168Z,4.88
2023-04-13T13:04:54.762Z,6.68
2023-04-13T13:07:21.409Z,6.20
2023-04-13T13:09:47.872Z,6.90
2023-04-13T13:12:14.408Z,6.40
2023-04-13T13:14:40.906Z,5.80
2023-04-13T13:17:07.398Z,4.22
2023-04-13T13:19:33.904Z,7.97
2023-04-13T13:22:00.527Z,5.35
2023-04-13T13:24:27.386Z,6.88
2023-04-13T13:27:29.953Z,6.80
2023-04-13T13:29:40.807Z,5.35
2023-04-13T13:32:07.571Z,10.00
2023-04-13T13:34:34.212Z,3.95
2023-04-13T13:37:00.684Z,3.80
2023-04-13T13:39:27.184Z,3.40
2023-04-13T13:41:53.699Z,8.20
2023-04-13T13:44:20.216Z,5.80
2023-04-13T13:46:46.705Z,5.28
2023-04-13T13:49:13.199Z,5.65
2023-04-13T13:51:39.742Z,7.22
2023-04-13T13:54:06.217Z,5.13
2023-04-13T13:56:32.823Z,5.28
2023-04-13T13:58:59.635Z,5.55
2023-04-13T14:01:26.321Z,7.15
2023-04-13T14:03:53.033Z,9.30
2023-04-13T14:06:19.599Z,5.93
2023-04-13T14:08:46.149Z,5.22
2023-04-13T14:11:13.026Z,4.20
2023-04-13T14:13:39.558Z,5.90
2023-04-13T14:16:06.564Z,5.68
2023-04-13T14:18:33.164Z,4.45
2023-04-13T14:20:59.859Z,5.95
2023-04-13T14:23:26.388Z,4.90
2023-04-13T14:25:52.900Z,3.90
2023-04-13T14:28:19.460Z,5.30
2023-04-13T14:30:45.959Z,5.45
2023-04-13T14:33:12.575Z,4.15
2023-04-13T14:35:39.185Z,4.53
2023-04-13T14:38:05.728Z,2.92
2023-04-13T14:40:32.450Z,3.08
2023-04-13T14:42:59.043Z,4.07
2023-04-13T14:45:25.611Z,3.97
2023-04-13T14:47:52.103Z,6.25
2023-04-13T14:50:18.631Z,5.38
2023-04-13T14:52:46.250Z,6.53
2023-04-13T14:55:13.740Z,5.18
2023-04-13T14:57:40.808Z,4.82
2023-04-13T15:00:08.048Z,6.63
2023-04-13T15:02:34.678Z,8.93
2023-04-13T15:05:01.391Z,5.53
2023-04-13T15:07:27.896Z,5.43
2023-04-13T15:09:54.424Z,4.35
2023-04-13T15:12:20.948Z,7.18
2023-04-13T15:14:47.493Z,8.80
2023-04-13T15:17:14.046Z,3.88
2023-04-13T15:19:40.586Z,5.57
2023-04-13T15:22:07.178Z,5.53
2023-04-13T15:24:33.716Z,5.55
2023-04-13T15:27:00.289Z,6.50
2023-04-13T15:29:27.237Z,3.72
2023-04-13T15:31:53.949Z,4.28
2023-04-13T15:34:20.527Z,4.78
2023-04-13T15:36:47.721Z,4.60
2023-04-13T15:39:14.258Z,6.72
2023-04-13T15:41:41.041Z,5.78
2023-04-13T15:44:07.554Z,3.80
2023-04-13T15:46:34.246Z,4.70
2023-04-13T15:49:01.056Z,6.05
2023-04-13T15:51:28.150Z,3.10
2023-04-13T15:53:54.764Z,3.08
2023-04-13T15:56:21.286Z,6.05
2023-04-13T15:58:48.802Z,3.65
2023-04-13T16:01:15.378Z,3.05
2023-04-13T16:03:42.242Z,3.00
2023-04-13T16:06:08.922Z,4.70
2023-04-13T16:08:35.446Z,4.28
2023-04-13T16:11:02.062Z,3.00
2023-04-13T16:13:41.502Z,6.55
2023-04-13T16:16:14.405Z,6.20
2023-04-13T16:18:41.097Z,6.55
2023-04-13T16:21:07.620Z,4.22
2023-04-13T16:23:34.162Z,3.17
2023-04-13T16:26:02.354Z,2.38
2023-04-13T16:28:28.897Z,4.45
2023-04-13T16:30:55.876Z,4.45
2023-04-13T16:33:22.395Z,4.22
2023-04-13T16:35:48.936Z,4.75
2023-04-13T16:38:15.450Z,3.28
2023-04-13T16:40:41.915Z,4.00
2023-04-13T16:43:08.424Z,4.88
2023-04-13T16:45:36.283Z,1.17
2023-04-13T16:48:02.890Z,4.80
2023-04-13T16:50:31.449Z,3.95
2023-04-13T16:52:58.888Z,4.82
2023-04-13T16:55:25.620Z,5.10
2023-04-13T16:57:52.193Z,3.42
2023-04-13T17:00:19.113Z,2.03
2023-04-13T17:02:45.880Z,3.60
2023-04-13T17:05:13.087Z,4.63
2023-04-13T17:07:41.074Z,6.85
2023-04-13T17:10:08.612Z,5.28
2023-04-13T17:12:35.654Z,5.22
2023-04-13T17:15:02.499Z,9.82
2023-04-13T17:17:29.051Z,3.58
2023-04-13T17:19:55.604Z,5.57
2023-04-13T17:22:22.572Z,4.93
2023-04-13T17:24:49.563Z,2.55
2023-04-13T17:27:16.189Z,6.20
2023-04-13T17:29:42.792Z,6.03
2023-04-13T17:32:09.547Z,5.30
2023-04-13T17:34:36.182Z,5.07
2023-04-13T17:37:02.730Z,5.25
2023-04-13T17:39:29.220Z,3.63
2023-04-13T17:41:55.706Z,4.30
2023-04-13T17:44:22.214Z,5.22
2023-04-13T17:46:48.785Z,4.75
2023-04-13T17:49:15.271Z,7.03
2023-04-13T17:51:44.574Z,6.13
2023-04-13T17:54:11.120Z,4.45
2023-04-13T17:56:37.636Z,6.03
2023-04-13T17:59:04.146Z,6.28
2023-04-13T18:01:30.718Z,3.75
2023-04-13T18:03:59.335Z,5.45
2023-04-13T18:06:26.165Z,5.03
2023-04-13T18:08:52.743Z,3.53
2023-04-13T18:11:19.324Z,5.93
2023-04-13T18:13:45.837Z,5.07
2023-04-13T18:16:14.317Z,4.28
2023-04-13T18:18:41.140Z,5.18
2023-04-13T18:21:07.630Z,7.47
2023-04-13T18:23:34.151Z,8.90
2023-04-13T18:26:01.972Z,8.20
2023-04-13T18:28:28.592Z,5.45
2023-04-13T18:30:59.144Z,4.18
2023-04-13T18:33:25.919Z,5.05
2023-04-13T18:35:52.442Z,6.70
2023-04-13T18:38:19.118Z,4.30
2023-04-13T18:40:45.624Z,4.88
2023-04-13T18:43:12.434Z,5.00
2023-04-13T18:45:38.941Z,5.93
2023-04-13T18:48:05.624Z,6.43
2023-04-13T18:50:32.175Z,5.25
2023-04-13T18:52:58.675Z,2.88
2023-04-13T18:55:25.263Z,5.07
2023-04-13T18:57:52.042Z,6.45
2023-04-13T19:00:18.862Z,7.57
2023-04-13T19:02:51.048Z,5.97
2023-04-13T19:05:19.094Z,5.40
2023-04-13T19:07:57.242Z,5.63
2023-04-13T19:10:27.003Z,6.00
2023-04-13T19:12:54.038Z,4.82
2023-04-13T19:15:20.646Z,5.50
2023-04-13T19:17:47.186Z,5.88
2023-04-13T19:20:13.834Z,5.50
2023-04-13T19:22:40.342Z,5.45
2023-04-13T19:25:07.655Z,6.65
2023-04-13T19:27:34.190Z,5.80
2023-04-13T19:30:00.726Z,4.25
2023-04-13T19:32:27.315Z,5.82
2023-04-13T19:34:53.808Z,4.25
2023-04-13T19:37:20.325Z,6.07
2023-04-13T19:39:46.802Z,6.80
2023-04-13T19:42:13.268Z,5.40
2023-04-13T19:44:39.852Z,7.18
2023-04-13T19:47:06.385Z,7.43
2023-04-13T19:49:33.011Z,6.38
2023-04-13T19:51:59.555Z,4.78
2023-04-13T19:54:26.106Z,3.95
2023-04-13T19:56:52.727Z,5.40
2023-04-13T19:59:19.338Z,5.47
2023-04-13T20:01:45.972Z,6.70
2023-04-13T20:04:12.874Z,6.63
2023-04-13T20:06:39.522Z,4.15
2023-04-13T20:09:13.702Z,5.43
2023-04-13T20:11:40.724Z,5.07
2023-04-13T20:14:08.119Z,5.47
2023-04-13T20:16:34.834Z,4.85
2023-04-13T20:19:01.809Z,7.25
2023-04-13T20:21:29.593Z,6.95
2023-04-13T20:23:56.704Z,7.78
2023-04-13T20:26:24.483Z,5.47
2023-04-13T20:29:02.239Z,6.13
2023-04-13T20:31:30.464Z,7.28
2023-04-13T20:33:57.833Z,6.78
2023-04-13T20:36:24.561Z,6.43
2023-04-13T20:38:55.009Z,6.90
2023-04-13T20:41:21.747Z,5.82
2023-04-13T20:43:50.246Z,5.03
2023-04-13T20:46:16.947Z,5.90
2023-04-13T20:51:12.986Z,4.78
2023-04-13T20:53:39.512Z,5.30
2023-04-13T20:56:06.158Z,5.03
2023-04-13T20:58:32.882Z,4.10
2023-04-13T21:00:59.898Z,4.95
2023-04-13T21:03:26.658Z,4.72
2023-04-13T21:05:53.399Z,6.38
2023-04-13T21:08:20.642Z,5.10
2023-04-13T21:10:47.160Z,9.90
2023-04-13T21:13:15.661Z,5.63
2023-04-13T21:15:42.656Z,5.65
2023-04-13T21:18:09.681Z,4.53
2023-04-13T21:20:38.195Z,5.53
2023-04-13T21:23:04.695Z,4.90
2023-04-13T21:25:31.158Z,5.13
2023-04-13T21:27:57.682Z,7.75
2023-04-13T21:30:24.269Z,4.50
2023-04-13T21:32:50.902Z,5.95
2023-04-13T21:35:17.631Z,3.90
2023-04-13T21:37:44.118Z,2.80
2023-04-13T21:40:10.987Z,5.10
2023-04-13T21:42:40.379Z,4.20
2023-04-13T21:45:07.494Z,4.32
2023-04-13T21:47:34.078Z,7.65
2023-04-13T21:50:00.581Z,5.30
2023-04-13T21:52:28.535Z,5.40
2023-04-13T21:54:55.033Z,6.45
2023-04-13T21:57:21.628Z,6.32
2023-04-13T21:59:48.157Z,3.65
2023-04-13T22:02:14.758Z,4.05
2023-04-13T22:04:41.335Z,6.50
2023-04-13T22:07:07.916Z,4.28
2023-04-13T22:09:34.452Z,8.38
2023-04-13T22:12:00.917Z,3.92
2023-04-13T22:14:27.424Z,3.97
2023-04-13T22:16:54.012Z,4.55
2023-04-13T22:19:20.567Z,4.85
2023-04-13T22:21:47.120Z,5.35
2023-04-13T22:24:13.818Z,3.95
2023-04-13T22:26:40.307Z,5.95
2023-04-13T22:29:06.760Z,4.65
2023-04-13T22:31:36.118Z,3.53
2023-04-13T22:34:02.695Z,5.68
2023-04-13T22:36:29.207Z,3.53
2023-04-13T22:38:55.693Z,4.22
2023-04-13T22:41:22.219Z,3.53
2023-04-13T22:43:48.713Z,5.13
2023-04-13T22:46:15.250Z,4.07
2023-04-13T22:48:41.773Z,5.03
2023-04-13T22:51:08.312Z,3.72
2023-04-13T22:53:34.829Z,4.05
2023-04-13T22:56:01.311Z,3.85
2023-04-13T22:58:28.182Z,6.57
2023-04-13T23:00:54.781Z,5.07
2023-04-13T23:03:21.417Z,5.80
2023-04-13T23:05:48.070Z,3.30
2023-04-13T23:08:14.590Z,7.95
2023-04-13T23:10:41.172Z,6.32
2023-04-13T23:13:07.759Z,6.35
2023-04-13T23:15:34.291Z,5.18
2023-04-13T23:18:00.783Z,4.95
2023-04-13T23:20:27.337Z,3.22
2023-04-13T23:22:53.950Z,6.95
2023-04-13T23:25:20.421Z,4.03
2023-04-13T23:27:46.936Z,3.70
2023-04-13T23:30:13.658Z,3.28
2023-04-13T23:32:40.240Z,8.18
2023-04-13T23:35:07.450Z,4.40
2023-04-13T23:37:34.063Z,3.78
2023-04-13T23:40:00.668Z,4.80
2023-04-13T23:42:27.223Z,6.13
2023-04-13T23:44:53.729Z,4.07
2023-04-13T23:47:20.286Z,5.25
2023-04-13T23:49:46.881Z,5.35
2023-04-13T23:52:13.436Z,4.07
2023-04-13T23:54:40.018Z,5.50
2023-04-13T23:57:06.529Z,4.88
2023-04-13T23:59:33.020Z,7.40
